Time;durP1;ratioP1;P1;durP2;ratioP2;P2;SDS_P1;SDS_P2;PMS_P1;PMS_P2;Temp;Humidity;BMP_temperature;BMP_pressure;BME280_temperature;BME280_humidity;BME280_pressure;Samples;Min_cycle;Max_cycle;Signal;HPM_P1;HPM_P2
2023/09/20 00:01:22;;;;;;;0.10;0.10;;;17.10;99.90;;;;;;5028050;28;20176;-80
2023/09/20 00:03:48;;;;;;;0.10;0.10;;;16.90;99.90;;;;;;5023655;28;20241;-81
2023/09/20 00:06:18;;;;;;;0.10;0.10;;;16.90;99.90;;;;;;5019291;28;20682;-81
2023/09/20 00:08:47;;;;;;;0.10;0.10;;;16.90;99.90;;;;;;5018800;28;20214;-81
2023/09/20 00:11:15;;;;;;;0.10;0.10;;;16.90;99.90;;;;;;5033660;28;20578;-81
2023/09/20 00:13:42;;;;;;;0.10;0.10;;;16.90;99.90;;;;;;5017497;28;20285;-81
2023/09/20 00:16:09;;;;;;;0.10;0.10;;;16.90;99.90;;;;;;5018877;28;20298;-81
2023/09/20 00:18:35;;;;;;;0.10;0.10;;;16.90;99.90;;;;;;5017270;28;20191;-82
2023/09/20 00:21:01;;;;;;;0.10;0.10;;;16.80;99.90;;;;;;5018570;28;20643;-81
2023/09/20 00:23:27;;;;;;;0.10;0.10;;;16.60;99.90;;;;;;5018705;28;20241;-81
2023/09/20 00:25:52;;;;;;;0.10;0.10;;;16.40;99.90;;;;;;5017745;28;20187;-81
2023/09/20 00:28:18;;;;;;;0.10;0.10;;;16.30;99.90;;;;;;5018016;28;20723;-81
2023/09/20 00:30:45;;;;;;;0.10;0.10;;;16.30;99.90;;;;;;5016597;28;20206;-81
2023/09/20 00:33:11;;;;;;;0.10;0.10;;;16.30;99.90;;;;;;5017284;28;20261;-81
2023/09/20 00:35:39;;;;;;;0.10;0.10;;;16.50;99.90;;;;;;5018064;28;20195;-81
2023/09/20 00:38:04;;;;;;;0.10;0.10;;;16.60;99.90;;;;;;5018165;28;20218;-81
2023/09/20 00:40:32;;;;;;;0.10;0.10;;;16.70;99.90;;;;;;5017339;28;20213;-81
2023/09/20 00:42:58;;;;;;;0.10;0.10;;;16.80;99.90;;;;;;5018962;28;20194;-81
2023/09/20 00:45:24;;;;;;;0.10;0.10;;;16.80;99.90;;;;;;5018297;28;20175;-81
2023/09/20 00:47:55;;;;;;;0.10;0.10;;;16.70;99.90;;;;;;5017194;28;20199;-82
2023/09/20 00:50:22;;;;;;;0.10;0.10;;;16.50;99.90;;;;;;5015811;28;20207;-81
2023/09/20 00:52:51;;;;;;;0.10;0.10;;;16.40;99.90;;;;;;5017902;28;20658;-81
2023/09/20 00:55:24;;;;;;;0.10;0.10;;;16.50;99.90;;;;;;5018482;28;20189;-81
2023/09/20 00:57:53;;;;;;;0.10;0.10;;;16.60;99.90;;;;;;5019462;28;20713;-82
2023/09/20 01:00:21;;;;;;;0.10;0.10;;;16.70;99.90;;;;;;5017423;28;20194;-81
2023/09/20 01:02:52;;;;;;;0.10;0.10;;;16.80;99.90;;;;;;5016990;28;20183;-81
2023/09/20 01:05:25;;;;;;;0.10;0.10;;;16.90;99.90;;;;;;5021096;28;20218;-81
2023/09/20 01:07:55;;;;;;;0.10;0.10;;;16.90;99.90;;;;;;5022343;28;20748;-80
2023/09/20 01:10:23;;;;;;;0.10;0.10;;;16.90;99.90;;;;;;5023613;28;20203;-80
2023/09/20 01:12:54;;;;;;;0.10;0.10;;;16.90;99.90;;;;;;5023585;28;20551;-81
2023/09/20 01:15:21;;;;;;;0.10;0.10;;;16.70;99.90;;;;;;5039120;28;20201;-82
2023/09/20 01:17:47;;;;;;;0.10;0.10;;;16.80;99.90;;;;;;5021283;28;20202;-81
2023/09/20 01:20:14;;;;;;;0.10;0.10;;;16.50;99.90;;;;;;5020180;28;20183;-81
2023/09/20 01:22:40;;;;;;;0.10;0.10;;;16.50;99.90;;;;;;5019930;28;20222;-81
2023/09/20 01:25:09;;;;;;;0.10;0.10;;;16.50;99.90;;;;;;5020525;28;20186;-81
2023/09/20 01:27:37;;;;;;;0.10;0.10;;;16.30;99.90;;;;;;5021598;28;20346;-81
2023/09/20 01:30:03;;;;;;;0.10;0.10;;;16.00;99.90;;;;;;5020708;28;20238;-81
2023/09/20 01:32:29;;;;;;;0.10;0.10;;;16.20;99.90;;;;;;5020947;28;20229;-81
2023/09/20 01:34:55;;;;;;;0.10;0.10;;;16.20;99.90;;;;;;5021354;28;20185;-81
2023/09/20 01:37:21;;;;;;;0.10;0.10;;;16.30;99.90;;;;;;5038246;28;20202;-82
2023/09/20 01:39:46;;;;;;;0.10;0.10;;;16.40;99.90;;;;;;5021387;28;20183;-81
2023/09/20 01:42:12;;;;;;;0.10;0.10;;;16.30;99.90;;;;;;5021941;28;20190;-81
2023/09/20 01:44:38;;;;;;;0.10;0.10;;;16.40;99.90;;;;;;5020378;28;20179;-81
2023/09/20 01:47:04;;;;;;;0.10;0.10;;;16.40;99.90;;;;;;5037440;28;20195;-83
2023/09/20 01:49:32;;;;;;;0.10;0.10;;;16.30;99.90;;;;;;5020923;28;20224;-81
2023/09/20 01:51:58;;;;;;;0.10;0.10;;;16.30;99.90;;;;;;5019938;28;20182;-81
2023/09/20 01:54:28;;;;;;;0.10;0.10;;;16.40;99.90;;;;;;5048251;28;20163;-81
2023/09/20 01:56:55;;;;;;;0.10;0.10;;;16.50;99.90;;;;;;5038486;28;20258;-81
2023/09/20 01:59:21;;;;;;;0.10;0.10;;;16.50;99.90;;;;;;5037040;28;20179;-81
2023/09/20 02:01:48;;;;;;;0.10;0.10;;;16.60;99.90;;;;;;5037138;28;20209;-81
2023/09/20 02:04:15;;;;;;;0.10;0.10;;;16.70;99.90;;;;;;5034475;28;20179;-81
2023/09/20 02:06:41;;;;;;;0.10;0.10;;;16.50;99.90;;;;;;5028731;28;20205;-82
2023/09/20 02:09:08;;;;;;;0.10;0.10;;;16.40;99.90;;;;;;5030140;28;20305;-81
2023/09/20 02:11:33;;;;;;;0.10;0.10;;;16.50;99.90;;;;;;5031123;28;20246;-81
2023/09/20 02:14:00;;;;;;;0.10;0.10;;;16.50;99.90;;;;;;5023017;28;20179;-81
2023/09/20 02:16:25;;;;;;;0.10;0.10;;;16.20;99.90;;;;;;5020392;28;20206;-82
2023/09/20 02:18:52;;;;;;;0.10;0.10;;;16.10;99.90;;;;;;5030395;28;20193;-80
2023/09/20 02:21:18;;;;;;;0.10;0.10;;;16.00;99.90;;;;;;5038220;28;20186;-81
2023/09/20 02:23:44;;;;;;;0.10;0.10;;;15.90;99.90;;;;;;5021428;28;20875;-81
2023/09/20 02:26:12;;;;;;;0.10;0.10;;;15.90;99.90;;;;;;5022059;28;20206;-81
2023/09/20 02:28:38;;;;;;;0.10;0.10;;;16.00;99.90;;;;;;5022012;28;20175;-81
2023/09/20 02:31:04;;;;;;;0.10;0.10;;;16.10;99.90;;;;;;5034744;28;20615;-81
2023/09/20 02:33:30;;;;;;;0.10;0.10;;;16.20;99.90;;;;;;5036679;28;20178;-81
2023/09/20 02:35:57;;;;;;;0.10;0.10;;;16.30;99.90;;;;;;5034332;28;20191;-81
2023/09/20 02:38:22;;;;;;;0.10;0.10;;;16.30;99.90;;;;;;5037542;28;20204;-81
2023/09/20 02:40:50;;;;;;;0.10;0.10;;;16.30;99.90;;;;;;5037335;28;20183;-81
2023/09/20 02:43:16;;;;;;;0.10;0.10;;;16.20;99.90;;;;;;5022766;28;20171;-81
2023/09/20 02:45:45;;;;;;;0.10;0.10;;;16.30;99.90;;;;;;5020047;28;20183;-81
2023/09/20 02:48:11;;;;;;;0.10;0.10;;;16.30;99.90;;;;;;5023662;28;20193;-81
2023/09/20 02:50:37;;;;;;;0.10;0.10;;;16.40;99.90;;;;;;5021073;28;20297;-81
2023/09/20 02:53:04;;;;;;;0.10;0.10;;;16.20;99.90;;;;;;5024964;28;20175;-81
2023/09/20 02:55:31;;;;;;;0.10;0.10;;;16.00;99.90;;;;;;5030934;28;20170;-81
2023/09/20 02:57:57;;;;;;;0.10;0.10;;;15.80;99.90;;;;;;5034062;28;20207;-81
2023/09/20 03:00:27;;;;;;;0.10;0.10;;;15.60;99.90;;;;;;5050842;28;20242;-79
2023/09/20 03:02:55;;;;;;;0.10;0.10;;;15.50;99.90;;;;;;5041214;28;20211;-80
2023/09/20 03:05:32;;;;;;;0.10;0.10;;;15.70;99.90;;;;;;5043849;28;20163;-80
2023/09/20 03:07:58;;;;;;;0.10;0.10;;;15.50;99.90;;;;;;5046190;28;20221;-80
2023/09/20 03:10:25;;;;;;;0.10;0.10;;;15.40;99.90;;;;;;5046308;28;20211;-80
2023/09/20 03:12:53;;;;;;;0.10;0.10;;;15.30;99.90;;;;;;5046161;28;20170;-80
2023/09/20 03:15:24;;;;;;;0.10;0.10;;;15.20;99.90;;;;;;5046195;28;20190;-80
2023/09/20 03:18:03;;;;;;;0.10;0.10;;;15.20;99.90;;;;;;5052712;28;20278;-80
2023/09/20 03:20:32;;;;;;;0.10;0.10;;;15.20;99.90;;;;;;5056065;28;20274;-80
2023/09/20 03:23:05;;;;;;;0.10;0.10;;;15.10;99.90;;;;;;5034971;28;20194;-81
2023/09/20 03:25:36;;;;;;;0.10;0.10;;;15.10;99.90;;;;;;5021286;28;20174;-82
2023/09/20 03:28:03;;;;;;;0.10;0.10;;;15.10;99.90;;;;;;5020559;28;20206;-81
2023/09/20 03:30:31;;;;;;;0.10;0.10;;;15.10;99.90;;;;;;5021636;28;20292;-81
2023/09/20 03:32:57;;;;;;;0.10;0.10;;;15.00;99.90;;;;;;5018416;28;20274;-81
2023/09/20 03:35:23;;;;;;;0.10;0.10;;;15.00;99.90;;;;;;5021422;28;20217;-81
2023/09/20 03:37:49;;;;;;;0.10;0.10;;;15.00;99.90;;;;;;5020716;28;20206;-81
2023/09/20 03:40:17;;;;;;;0.10;0.10;;;15.00;99.90;;;;;;5022547;28;20214;-81
2023/09/20 03:42:44;;;;;;;0.10;0.10;;;15.00;99.90;;;;;;5038039;28;20193;-81
2023/09/20 03:45:11;;;;;;;0.10;0.10;;;15.10;99.90;;;;;;5020397;28;20211;-81
2023/09/20 03:47:37;;;;;;;0.10;0.10;;;15.00;99.90;;;;;;5019882;28;20210;-81
2023/09/20 03:50:04;;;;;;;0.10;0.10;;;15.00;99.90;;;;;;5021305;28;20214;-80
2023/09/20 03:52:29;;;;;;;0.10;0.10;;;15.10;99.90;;;;;;5024066;28;20239;-81
2023/09/20 03:54:55;;;;;;;0.10;0.10;;;15.10;99.90;;;;;;5029981;28;20184;-81
2023/09/20 03:57:24;;;;;;;0.10;0.10;;;15.20;99.90;;;;;;5030552;28;20198;-81
2023/09/20 03:59:54;;;;;;;0.10;0.10;;;15.40;99.90;;;;;;5042026;28;20273;-81
2023/09/20 04:02:23;;;;;;;0.10;0.10;;;15.50;99.90;;;;;;5045533;28;20179;-81
2023/09/20 04:04:52;;;;;;;0.10;0.10;;;15.70;99.90;;;;;;5039000;28;20179;-80
2023/09/20 04:07:19;;;;;;;0.03;0.03;;;15.80;99.90;;;;;;5051258;28;20187;-80
2023/09/20 04:09:44;;;;;;;0.10;0.10;;;15.70;99.90;;;;;;5045247;28;20202;-80
2023/09/20 04:12:11;;;;;;;0.10;0.10;;;15.60;99.90;;;;;;5044205;28;20190;-80
2023/09/20 04:14:37;;;;;;;0.10;0.10;;;15.40;99.90;;;;;;5042109;28;20206;-80
2023/09/20 04:17:04;;;;;;;0.10;0.10;;;15.30;99.90;;;;;;5038321;28;20219;-81
2023/09/20 04:19:30;;;;;;;0.10;0.10;;;15.30;99.90;;;;;;5018837;28;20187;-82
2023/09/20 04:21:56;;;;;;;0.10;0.10;;;15.20;99.90;;;;;;5019480;28;20278;-81
2023/09/20 04:24:22;;;;;;;0.10;0.10;;;15.10;99.90;;;;;;5033522;28;20195;-81
2023/09/20 04:26:48;;;;;;;0.10;0.10;;;15.00;99.90;;;;;;5016791;28;20265;-82
2023/09/20 04:29:14;;;;;;;0.10;0.10;;;14.90;99.90;;;;;;5017773;28;20676;-81
2023/09/20 04:31:40;;;;;;;0.10;0.10;;;15.00;99.90;;;;;;5017697;28;20724;-81
2023/09/20 04:34:06;;;;;;;0.10;0.10;;;15.10;99.90;;;;;;5018799;28;20183;-80
2023/09/20 04:36:31;;;;;;;0.10;0.10;;;15.20;99.90;;;;;;5031298;28;20207;-81
2023/09/20 04:38:57;;;;;;;0.10;0.10;;;15.30;99.90;;;;;;5019983;28;20192;-81
2023/09/20 04:41:22;;;;;;;0.10;0.10;;;15.20;99.90;;;;;;5023005;28;20696;-81
2023/09/20 04:43:48;;;;;;;0.10;0.10;;;15.10;99.90;;;;;;5021839;28;20223;-81
2023/09/20 04:46:14;;;;;;;0.10;0.10;;;15.10;99.90;;;;;;5030496;28;20202;-81
2023/09/20 04:48:40;;;;;;;0.10;0.10;;;15.10;99.90;;;;;;5021959;28;20220;-81
2023/09/20 04:51:06;;;;;;;0.10;0.10;;;15.00;99.90;;;;;;5021584;28;20637;-80
2023/09/20 04:53:33;;;;;;;0.10;0.10;;;15.10;99.90;;;;;;5019243;28;20209;-81
2023/09/20 04:55:59;;;;;;;0.10;0.10;;;15.20;99.90;;;;;;5019872;28;20179;-80
2023/09/20 04:58:25;;;;;;;0.10;0.10;;;15.10;99.90;;;;;;5019024;28;20217;-80
2023/09/20 05:00:51;;;;;;;0.10;0.10;;;15.10;99.90;;;;;;5022025;28;20661;-81
2023/09/20 05:03:17;;;;;;;0.10;0.10;;;15.00;99.90;;;;;;5019442;28;20273;-81
2023/09/20 05:05:44;;;;;;;0.10;0.10;;;15.00;99.90;;;;;;5019459;28;20194;-80
2023/09/20 05:08:10;;;;;;;0.10;0.10;;;15.10;99.90;;;;;;5021877;28;20247;-81
2023/09/20 05:10:35;;;;;;;0.10;0.10;;;15.10;99.90;;;;;;5021521;28;20859;-81
2023/09/20 05:13:01;;;;;;;0.10;0.10;;;15.10;99.90;;;;;;5019566;28;20756;-81
2023/09/20 05:15:26;;;;;;;0.10;0.10;;;15.00;99.90;;;;;;5017919;28;20193;-81
2023/09/20 05:17:52;;;;;;;0.10;0.10;;;15.10;99.90;;;;;;5019269;28;20298;-78
2023/09/20 05:20:18;;;;;;;0.10;0.10;;;15.20;99.90;;;;;;5021059;28;20218;-78
2023/09/20 05:22:44;;;;;;;0.10;0.10;;;15.20;99.90;;;;;;5021580;28;20179;-79
2023/09/20 05:25:09;;;;;;;0.10;0.10;;;15.30;99.90;;;;;;5019851;28;20915;-79
2023/09/20 05:27:36;;;;;;;0.10;0.10;;;15.30;99.90;;;;;;5032988;28;20214;-83
2023/09/20 05:30:02;;;;;;;0.10;0.10;;;15.30;99.90;;;;;;5020220;28;20215;-82
2023/09/20 05:32:28;;;;;;;0.10;0.10;;;15.30;99.90;;;;;;5020585;28;20264;-83
2023/09/20 05:34:55;;;;;;;0.10;0.10;;;15.50;99.90;;;;;;5021427;28;20220;-82
2023/09/20 05:37:20;;;;;;;0.10;0.10;;;15.40;99.90;;;;;;5038861;28;20198;-83
2023/09/20 05:39:48;;;;;;;0.10;0.10;;;15.30;99.90;;;;;;5021865;28;20202;-83
2023/09/20 05:42:14;;;;;;;0.10;0.10;;;15.30;99.90;;;;;;5021337;28;20337;-83
2023/09/20 05:44:40;;;;;;;0.10;0.10;;;15.50;99.90;;;;;;5020931;28;20195;-83
2023/09/20 05:47:08;;;;;;;0.10;0.10;;;15.50;99.90;;;;;;5020360;28;20217;-83
2023/09/20 05:49:34;;;;;;;0.10;0.10;;;15.60;99.90;;;;;;5019399;28;20709;-81
2023/09/20 05:52:00;;;;;;;0.10;0.10;;;15.60;99.90;;;;;;5036559;28;20314;-81
2023/09/20 05:54:26;;;;;;;0.10;0.10;;;15.70;99.90;;;;;;5021886;28;20244;-81
2023/09/20 05:56:52;;;;;;;0.10;0.10;;;15.70;99.90;;;;;;5020091;28;20572;-81
2023/09/20 05:59:17;;;;;;;0.10;0.10;;;15.70;99.90;;;;;;5030103;28;20178;-81
2023/09/20 06:01:43;;;;;;;0.10;0.10;;;15.60;99.90;;;;;;5020485;28;20202;-82
2023/09/20 06:04:09;;;;;;;0.10;0.10;;;15.40;99.90;;;;;;5018811;28;20222;-81
2023/09/20 06:06:37;;;;;;;0.10;0.10;;;15.40;99.90;;;;;;5023852;28;20681;-81
2023/09/20 06:09:03;;;;;;;0.10;0.10;;;15.40;99.90;;;;;;5020770;28;20213;-81
2023/09/20 06:11:29;;;;;;;0.10;0.10;;;15.30;99.90;;;;;;5020221;28;20234;-81
2023/09/20 06:13:55;;;;;;;0.10;0.10;;;15.40;99.90;;;;;;5020631;28;20202;-81
2023/09/20 06:16:20;;;;;;;0.10;0.10;;;15.40;99.90;;;;;;5020285;28;20206;-81
2023/09/20 06:18:50;;;;;;;0.10;0.10;;;15.70;99.90;;;;;;5018986;28;20191;-81
2023/09/20 06:21:19;;;;;;;0.10;0.10;;;15.90;99.90;;;;;;5020263;28;20218;-80
2023/09/20 06:23:45;;;;;;;0.10;0.10;;;16.00;99.90;;;;;;5027313;28;20190;-80
2023/09/20 06:26:12;;;;;;;0.10;0.10;;;16.20;99.90;;;;;;5017626;28;20211;-80
2023/09/20 06:28:41;;;;;;;0.10;0.10;;;16.40;99.90;;;;;;5021034;28;20190;-81
2023/09/20 06:31:13;;;;;;;0.10;0.10;;;16.60;99.90;;;;;;5023341;28;20206;-81
2023/09/20 06:33:40;;;;;;;0.10;0.10;;;16.80;99.90;;;;;;5016943;28;20184;-81
2023/09/20 06:36:06;;;;;;;0.10;0.10;;;16.70;99.90;;;;;;5019288;28;20174;-81
2023/09/20 06:38:34;;;;;;;0.10;0.10;;;16.60;99.90;;;;;;5019574;28;21069;-81
2023/09/20 06:41:00;;;;;;;0.10;0.10;;;16.60;99.90;;;;;;5019688;28;20190;-81
2023/09/20 06:43:27;;;;;;;0.10;0.10;;;16.80;99.90;;;;;;5018220;28;20534;-81
2023/09/20 06:45:53;;;;;;;0.10;0.10;;;16.80;99.90;;;;;;5020050;28;20561;-82
2023/09/20 06:48:23;;;;;;;0.10;0.10;;;16.80;99.90;;;;;;5021672;28;20191;-82
2023/09/20 06:50:50;;;;;;;0.10;0.10;;;16.50;99.90;;;;;;5020033;28;21228;-81
2023/09/20 06:53:17;;;;;;;0.10;0.10;;;16.40;99.90;;;;;;5019971;28;20602;-82
2023/09/20 06:55:43;;;;;;;0.10;0.10;;;16.40;99.90;;;;;;5020552;28;20231;-83
2023/09/20 06:58:09;;;;;;;0.10;0.10;;;16.40;99.90;;;;;;5020322;28;20931;-82
2023/09/20 07:00:35;;;;;;;0.10;0.10;;;16.50;99.90;;;;;;5021024;28;20183;-82
2023/09/20 07:03:05;;;;;;;0.10;0.10;;;16.50;99.90;;;;;;5018939;28;20248;-82
2023/09/20 07:05:31;;;;;;;0.10;0.10;;;16.70;99.90;;;;;;5021106;28;20186;-82
2023/09/20 07:08:00;;;;;;;0.10;0.10;;;17.10;99.90;;;;;;5020549;28;20214;-82
2023/09/20 07:10:28;;;;;;;0.10;0.10;;;17.20;99.90;;;;;;5020175;28;20662;-81
2023/09/20 07:12:54;;;;;;;0.10;0.10;;;17.00;99.90;;;;;;5020201;28;20226;-82
2023/09/20 07:15:20;;;;;;;0.10;0.10;;;17.30;99.90;;;;;;5020120;28;20277;-81
2023/09/20 07:17:59;;;;;;;0.10;0.10;;;17.30;99.90;;;;;;5019666;28;20282;-81
2023/09/20 07:20:26;;;;;;;0.10;0.10;;;17.40;99.90;;;;;;5019218;28;20194;-81
2023/09/20 07:22:51;;;;;;;0.10;0.10;;;17.40;99.90;;;;;;5020287;28;20214;-81
2023/09/20 07:25:20;;;;;;;0.10;0.10;;;17.60;99.90;;;;;;5017058;28;21943;-81
2023/09/20 07:27:47;;;;;;;0.10;0.10;;;17.60;99.90;;;;;;5019023;28;20218;-82
2023/09/20 07:30:17;;;;;;;0.10;0.10;;;17.90;99.90;;;;;;5035986;28;20293;-82
2023/09/20 07:32:44;;;;;;;0.10;0.10;;;18.20;99.90;;;;;;5017785;28;20194;-82
2023/09/20 07:35:26;;;;;;;0.10;0.10;;;18.40;99.90;;;;;;5018744;28;20183;-82
2023/09/20 07:37:57;;;;;;;0.10;0.10;;;18.60;99.90;;;;;;5017177;28;20198;-83
2023/09/20 07:40:33;;;;;;;0.10;0.10;;;18.70;99.90;;;;;;5033500;28;20194;-80
2023/09/20 07:43:07;;;;;;;0.10;0.10;;;18.40;99.90;;;;;;5018917;28;20187;-82
2023/09/20 07:45:38;;;;;;;0.10;0.10;;;18.80;99.90;;;;;;5029943;28;20742;-80
2023/09/20 07:48:12;;;;;;;0.10;0.10;;;19.10;99.90;;;;;;5020092;28;20216;-81
2023/09/20 07:50:40;;;;;;;0.10;0.10;;;19.20;99.90;;;;;;5019597;28;20401;-81
2023/09/20 07:53:10;;;;;;;0.10;0.10;;;18.90;99.90;;;;;;5019705;28;20188;-81
2023/09/20 07:55:45;;;;;;;0.10;0.10;;;18.90;99.90;;;;;;5017506;28;20639;-80
2023/09/20 07:58:11;;;;;;;0.10;0.10;;;18.70;99.90;;;;;;5018596;28;20300;-81
2023/09/20 08:00:45;;;;;;;0.10;0.10;;;18.90;99.90;;;;;;5021413;28;20198;-81
2023/09/20 08:03:14;;;;;;;0.10;0.10;;;18.90;99.90;;;;;;5019109;28;20251;-81
2023/09/20 08:05:44;;;;;;;0.10;0.10;;;19.10;99.90;;;;;;5022446;28;20196;-80
2023/09/20 08:08:10;;;;;;;0.10;0.10;;;18.80;99.90;;;;;;5022608;28;20267;-81
2023/09/20 08:10:37;;;;;;;0.10;0.10;;;18.80;99.90;;;;;;5020669;28;20228;-81
2023/09/20 08:13:07;;;;;;;0.10;0.10;;;19.00;99.90;;;;;;5019893;28;20186;-81
2023/09/20 08:15:42;;;;;;;0.10;0.10;;;19.30;99.90;;;;;;5017988;28;20275;-81
2023/09/20 08:20:56;;;;;;;0.10;0.10;;;19.50;99.90;;;;;;5021096;28;20247;-82
2023/09/20 09:01:49;;;;;;;0.10;0.10;;;21.70;99.90;;;;;;5016426;28;20177;-80
2023/09/20 09:04:18;;;;;;;0.10;0.10;;;21.90;99.90;;;;;;5017426;28;20190;-81
2023/09/20 09:06:44;;;;;;;0.10;0.10;;;22.40;99.90;;;;;;5018331;28;20202;-82
2023/09/20 09:09:13;;;;;;;0.10;0.10;;;22.70;99.90;;;;;;5016922;28;20585;-82
2023/09/20 09:11:38;;;;;;;0.10;0.10;;;22.00;99.90;;;;;;5014870;28;20217;-82
2023/09/20 09:14:05;;;;;;;0.10;0.10;;;22.30;99.90;;;;;;5019654;28;20179;-82
2023/09/20 09:16:33;;;;;;;0.10;0.10;;;22.40;99.90;;;;;;5021332;28;20207;-82
2023/09/20 09:18:58;;;;;;;0.10;0.10;;;22.60;99.90;;;;;;5018929;28;20273;-82
2023/09/20 09:21:25;;;;;;;0.10;0.10;;;23.10;99.90;;;;;;5020918;28;20646;-83
2023/09/20 09:23:52;;;;;;;0.10;0.10;;;23.10;99.90;;;;;;5016087;28;20202;-82
2023/09/20 09:26:17;;;;;;;0.10;0.10;;;23.40;99.90;;;;;;5034490;28;20202;-82
2023/09/20 09:28:45;;;;;;;0.10;0.10;;;23.70;99.90;;;;;;5019547;28;20187;-82
2023/09/20 09:31:13;;;;;;;0.10;0.10;;;23.90;99.90;;;;;;5021160;28;20194;-82
2023/09/20 09:33:39;;;;;;;0.10;0.10;;;24.20;99.90;;;;;;5016944;28;20190;-83
2023/09/20 09:36:05;;;;;;;0.10;0.10;;;24.30;99.90;;;;;;5040222;28;20205;-82
2023/09/20 09:38:33;;;;;;;0.10;0.10;;;24.60;99.90;;;;;;5034630;28;20183;-82
2023/09/20 09:40:59;;;;;;;0.10;0.10;;;24.30;99.90;;;;;;5037000;28;20900;-81
2023/09/20 09:43:33;;;;;;;0.10;0.10;;;24.60;99.90;;;;;;5039500;28;20202;-81
2023/09/20 09:46:10;;;;;;;0.10;0.10;;;24.40;99.90;;;;;;5036650;28;20220;-82
2023/09/20 09:48:37;;;;;;;0.10;0.10;;;24.80;99.90;;;;;;5024909;28;20330;-82
2023/09/20 09:51:05;;;;;;;0.10;0.10;;;24.40;99.90;;;;;;5027231;28;20210;-83
2023/09/20 09:53:34;;;;;;;0.10;0.10;;;24.40;99.90;;;;;;5032810;28;20183;-82
2023/09/20 09:56:06;;;;;;;0.10;0.10;;;24.40;99.90;;;;;;5034026;28;20210;-81
2023/09/20 09:58:32;;;;;;;0.10;0.10;;;24.60;99.90;;;;;;5028012;28;20190;-80
2023/09/20 10:00:58;;;;;;;0.10;0.10;;;24.80;99.90;;;;;;5025654;28;20183;-81
2023/09/20 10:03:29;;;;;;;0.10;0.10;;;24.90;99.90;;;;;;5029184;28;20691;-81
2023/09/20 10:06:27;;;;;;;0.10;0.10;;;24.90;99.90;;;;;;5030384;28;20195;-81
2023/09/20 10:08:54;;;;;;;0.10;0.10;;;24.80;99.90;;;;;;5037611;28;20202;-80
2023/09/20 10:11:24;;;;;;;0.10;0.10;;;24.90;99.90;;;;;;5028719;28;20269;-81
2023/09/20 10:13:51;;;;;;;0.10;0.10;;;25.10;99.90;;;;;;5027485;28;20191;-81
2023/09/20 10:16:18;;;;;;;0.10;0.10;;;25.00;99.90;;;;;;5024545;28;20203;-81
2023/09/20 10:18:53;;;;;;;0.10;0.10;;;25.10;99.90;;;;;;5028558;28;20175;-81
2023/09/20 10:21:26;;;;;;;0.10;0.10;;;24.90;99.90;;;;;;5025658;28;20199;-81
2023/09/20 10:24:05;;;;;;;0.10;0.10;;;25.10;99.90;;;;;;5025508;28;20658;-81
2023/09/20 10:26:34;;;;;;;0.10;0.10;;;25.20;99.90;;;;;;5026363;28;20209;-81
2023/09/20 10:29:28;;;;;;;0.10;0.10;;;25.90;99.90;;;;;;5029564;28;20559;-81
2023/09/20 10:31:55;;;;;;;0.10;0.10;;;25.90;99.90;;;;;;5027314;28;20269;-81
2023/09/20 10:34:22;;;;;;;0.10;0.10;;;25.70;99.90;;;;;;5023187;28;21153;-81
2023/09/20 10:36:52;;;;;;;0.10;0.10;;;25.90;99.90;;;;;;5026133;28;20215;-81
2023/09/20 10:39:17;;;;;;;0.10;0.10;;;25.90;99.90;;;;;;5021390;28;20174;-82
2023/09/20 10:41:47;;;;;;;0.10;0.10;;;25.80;99.90;;;;;;5018584;28;20202;-82
2023/09/20 10:44:35;;;;;;;0.10;0.10;;;25.60;99.90;;;;;;5027671;28;20174;-82
2023/09/20 10:47:09;;;;;;;0.10;0.10;;;25.50;99.90;;;;;;5018983;28;20208;-82
2023/09/20 10:49:52;;;;;;;0.10;0.10;;;25.50;99.90;;;;;;5024886;28;20182;-81
2023/09/20 10:52:32;;;;;;;0.10;0.10;;;25.60;99.90;;;;;;5024415;28;20195;-81
2023/09/20 10:55:19;;;;;;;0.10;0.10;;;25.30;99.90;;;;;;5024719;28;20202;-81
2023/09/20 10:57:49;;;;;;;0.10;0.10;;;25.20;99.90;;;;;;5027173;28;20632;-83
2023/09/20 11:00:22;;;;;;;0.10;0.10;;;25.30;99.90;;;;;;5019358;28;20316;-82
2023/09/20 11:02:52;;;;;;;0.10;0.10;;;25.50;99.90;;;;;;5015159;28;20715;-83
2023/09/20 11:05:18;;;;;;;0.10;0.10;;;25.60;99.90;;;;;;5018763;28;20198;-83
2023/09/20 11:07:47;;;;;;;0.10;0.10;;;25.80;99.90;;;;;;5013121;28;20853;-89
2023/09/20 11:10:17;;;;;;;0.10;0.10;;;26.00;99.90;;;;;;5015936;28;20233;-82
2023/09/20 11:12:43;;;;;;;0.10;0.10;;;25.80;99.90;;;;;;5016039;28;20190;-82
2023/09/20 11:15:10;;;;;;;0.10;0.10;;;25.80;99.90;;;;;;5018529;28;20705;-82
2023/09/20 11:17:36;;;;;;;0.10;0.10;;;25.80;99.90;;;;;;5031388;28;20372;-83
2023/09/20 11:20:04;;;;;;;0.10;0.10;;;25.70;99.90;;;;;;5019549;28;20709;-82
2023/09/20 11:22:31;;;;;;;0.10;0.10;;;25.90;99.90;;;;;;5018352;28;20568;-82
2023/09/20 11:24:57;;;;;;;0.10;0.10;;;26.00;99.90;;;;;;5019598;28;20644;-81
2023/09/20 11:27:23;;;;;;;0.10;0.10;;;25.80;99.90;;;;;;5018270;28;20260;-82
2023/09/20 11:29:49;;;;;;;0.10;0.10;;;25.30;99.90;;;;;;5020592;28;20198;-82
2023/09/20 11:32:17;;;;;;;0.10;0.10;;;25.30;99.90;;;;;;5018929;28;20183;-82
2023/09/20 11:34:48;;;;;;;0.10;0.10;;;25.70;99.90;;;;;;5016528;28;20183;-82
2023/09/20 11:37:18;;;;;;;0.10;0.10;;;25.80;99.90;;;;;;5019384;28;20202;-82
2023/09/20 11:39:48;;;;;;;0.10;0.10;;;26.10;99.90;;;;;;5032793;28;20236;-82
2023/09/20 11:42:34;;;;;;;0.10;0.10;;;26.10;99.90;;;;;;5017913;28;20191;-82
2023/09/20 11:45:05;;;;;;;0.10;0.10;;;26.30;99.90;;;;;;5019674;28;20190;-81
2023/09/20 11:47:31;;;;;;;0.10;0.10;;;25.70;99.90;;;;;;5018473;28;20743;-82
2023/09/20 11:49:58;;;;;;;0.10;0.10;;;25.80;99.90;;;;;;5019782;28;20709;-81
2023/09/20 11:52:24;;;;;;;0.10;0.10;;;26.10;99.90;;;;;;5019035;28;20229;-82
2023/09/20 11:54:53;;;;;;;0.10;0.10;;;26.30;99.90;;;;;;5017088;28;20187;-82
2023/09/20 11:57:19;;;;;;;0.10;0.10;;;26.50;99.90;;;;;;5019226;28;20806;-82
2023/09/20 11:59:45;;;;;;;0.10;0.10;;;26.60;99.90;;;;;;5015799;28;20183;-81
2023/09/20 12:02:14;;;;;;;0.10;0.10;;;26.40;99.90;;;;;;5018594;28;20198;-80
2023/09/20 12:04:39;;;;;;;0.10;0.10;;;26.30;99.90;;;;;;5021494;28;20233;-80
2023/09/20 12:07:08;;;;;;;0.10;0.10;;;26.10;99.90;;;;;;5023662;28;20199;-80
2023/09/20 12:09:35;;;;;;;0.10;0.10;;;25.70;99.90;;;;;;5023305;28;20286;-82
2023/09/20 12:12:04;;;;;;;0.10;0.10;;;25.80;99.90;;;;;;5027019;28;20179;-81
2023/09/20 12:14:31;;;;;;;0.10;0.10;;;25.80;99.90;;;;;;5027702;28;20229;-81
2023/09/20 12:16:57;;;;;;;0.10;0.10;;;26.00;99.90;;;;;;5024665;28;20209;-80
2023/09/20 12:19:22;;;;;;;0.10;0.10;;;26.30;99.90;;;;;;5025243;28;20610;-81
2023/09/20 12:21:49;;;;;;;0.10;0.10;;;26.40;99.90;;;;;;5024448;28;20190;-81
2023/09/20 12:24:14;;;;;;;0.10;0.10;;;26.80;99.90;;;;;;5021171;28;20183;-80
2023/09/20 12:26:41;;;;;;;0.10;0.10;;;27.00;99.90;;;;;;5026402;28;20221;-80
2023/09/20 12:29:07;;;;;;;0.10;0.10;;;27.20;99.90;;;;;;5025237;28;20186;-81
2023/09/20 12:31:32;;;;;;;0.10;0.10;;;27.10;99.90;;;;;;5025903;28;20260;-81
2023/09/20 12:34:00;;;;;;;0.10;0.10;;;27.10;99.90;;;;;;5027713;28;21066;-80
2023/09/20 12:36:28;;;;;;;0.10;0.10;;;26.60;99.90;;;;;;5027108;28;21009;-81
2023/09/20 12:38:54;;;;;;;0.10;0.10;;;26.10;99.90;;;;;;5022000;28;20196;-81
2023/09/20 12:41:20;;;;;;;0.10;0.10;;;26.10;99.90;;;;;;5025018;28;20194;-81
2023/09/20 12:43:46;;;;;;;0.10;0.10;;;26.30;99.90;;;;;;5025533;28;20469;-81
2023/09/20 12:46:12;;;;;;;0.10;0.10;;;26.60;99.90;;;;;;5023841;28;22104;-80
2023/09/20 12:48:38;;;;;;;0.10;0.10;;;26.40;99.50;;;;;;5026374;28;20210;-81
2023/09/20 12:51:07;;;;;;;0.10;0.10;;;26.10;99.90;;;;;;5024544;28;20214;-81
2023/09/20 12:53:33;;;;;;;0.10;0.10;;;25.80;99.90;;;;;;5018415;28;20191;-81
2023/09/20 12:55:59;;;;;;;0.10;0.10;;;25.60;99.90;;;;;;5016875;28;20202;-81
2023/09/20 12:58:24;;;;;;;0.10;0.10;;;25.20;99.90;;;;;;5022257;28;20187;-81
2023/09/20 13:00:50;;;;;;;0.10;0.10;;;25.20;99.90;;;;;;5027357;28;20194;-81
2023/09/20 13:03:16;;;;;;;0.10;0.10;;;24.80;99.90;;;;;;5025829;28;20187;-81
2023/09/20 13:05:43;;;;;;;0.10;0.10;;;24.70;99.90;;;;;;5027570;28;20201;-82
2023/09/20 13:08:10;;;;;;;0.10;0.10;;;24.60;99.90;;;;;;5025618;28;20249;-81
2023/09/20 13:10:37;;;;;;;0.10;0.10;;;24.60;99.90;;;;;;5022477;28;20202;-80
2023/09/20 13:13:04;;;;;;;0.10;0.10;;;24.50;99.90;;;;;;5021514;28;20187;-83
2023/09/20 13:15:30;;;;;;;0.10;0.10;;;24.50;99.90;;;;;;5023876;28;20176;-83
2023/09/20 13:17:56;;;;;;;0.10;0.10;;;24.60;99.90;;;;;;5023219;28;20216;-82
2023/09/20 13:20:24;;;;;;;0.10;0.10;;;24.70;99.90;;;;;;5024745;28;20285;-82
2023/09/20 13:22:54;;;;;;;0.10;0.10;;;25.10;99.90;;;;;;5022506;28;20221;-82
2023/09/20 13:25:21;;;;;;;0.10;0.10;;;25.30;99.90;;;;;;5022418;28;20179;-82
2023/09/20 13:27:52;;;;;;;0.10;0.10;;;25.60;99.90;;;;;;5037553;28;20206;-84
2023/09/20 13:30:19;;;;;;;0.10;0.10;;;25.50;99.90;;;;;;5021234;28;20252;-83
2023/09/20 13:32:46;;;;;;;0.10;0.10;;;25.50;99.90;;;;;;5023108;28;20728;-82